createdAt,value
2019-03-28T00:03:39.190Z,26.10
2019-03-28T00:07:38.122Z,28.27
2019-03-28T00:11:37.585Z,28.40
2019-03-28T00:15:36.275Z,25.30
2019-03-28T00:19:34.889Z,29.43
2019-03-28T00:23:40.882Z,21.83
2019-03-28T00:27:39.490Z,23.63
2019-03-28T00:31:39.139Z,26.60
2019-03-28T00:35:37.736Z,24.97
2019-03-28T00:39:40.329Z,23.43
2019-03-28T00:43:38.977Z,23.83
2019-03-28T00:47:37.599Z,31.27
2019-03-28T00:51:36.242Z,25.87
2019-03-28T00:55:34.892Z,28.20
2019-03-28T00:59:35.655Z,23.03
2019-03-28T01:03:34.231Z,30.40
2019-03-28T01:07:32.833Z,27.57
2019-03-28T01:11:31.446Z,25.80
2019-03-28T01:15:33.083Z,26.57
2019-03-28T01:19:31.785Z,23.53
2019-03-28T01:23:30.423Z,27.10
2019-03-28T01:27:29.028Z,25.80
2019-03-28T01:31:27.672Z,26.57
2019-03-28T01:35:26.385Z,28.03
2019-03-28T01:39:24.987Z,28.00
2019-03-28T01:43:23.702Z,25.83
2019-03-28T01:47:22.302Z,25.17
2019-03-28T01:51:20.913Z,25.40
2019-03-28T01:55:19.563Z,27.07
2019-03-28T01:59:18.181Z,29.23
2019-03-28T02:03:46.855Z,26.57
2019-03-28T02:07:17.074Z,28.30
2019-03-28T02:11:15.984Z,25.40
2019-03-28T02:15:15.109Z,27.83
2019-03-28T02:19:13.883Z,23.83
2019-03-28T02:23:15.493Z,32.10
2019-03-28T02:27:23.488Z,25.40
2019-03-28T02:31:14.495Z,30.90
2019-03-28T02:35:15.275Z,38.63
2019-03-28T02:39:14.636Z,31.93
2019-03-28T02:43:13.356Z,23.70
2019-03-28T02:47:12.258Z,39.10
2019-03-28T02:51:10.948Z,29.77
2019-03-28T02:55:10.263Z,22.03
2019-03-28T02:59:09.427Z,36.87
2019-03-28T03:03:08.031Z,27.33
2019-03-28T03:07:06.971Z,30.20
2019-03-28T03:11:07.198Z,30.60
2019-03-28T03:15:07.991Z,26.50
2019-03-28T03:19:06.739Z,30.03
2019-03-28T03:23:05.742Z,33.73
2019-03-28T03:27:04.734Z,25.77
2019-03-28T03:31:03.443Z,38.37
2019-03-28T03:35:02.374Z,30.87
2019-03-28T03:39:11.977Z,39.43
2019-03-28T03:43:11.131Z,26.27
2019-03-28T03:47:09.876Z,31.13
2019-03-28T03:51:08.611Z,27.77
2019-03-28T03:55:08.210Z,29.97
2019-03-28T03:59:06.844Z,30.53
2019-03-28T04:03:06.232Z,28.70
2019-03-28T04:07:09.567Z,29.47
2019-03-28T04:11:09.326Z,30.70
2019-03-28T04:15:10.249Z,27.13
2019-03-28T04:19:08.968Z,38.07
2019-03-28T04:23:08.005Z,30.97
2019-03-28T04:27:07.000Z,33.70
2019-03-28T04:31:06.004Z,30.50
2019-03-28T04:35:08.384Z,28.97
2019-03-28T04:39:07.387Z,27.40
2019-03-28T04:43:06.085Z,33.40
2019-03-28T04:47:06.778Z,28.17
2019-03-28T04:51:05.628Z,37.37
2019-03-28T04:55:05.862Z,38.10
2019-03-28T04:59:04.861Z,34.13
2019-03-28T05:03:06.398Z,31.53
2019-03-28T05:07:05.326Z,31.93
2019-03-28T05:11:03.929Z,38.37
2019-03-28T05:15:02.688Z,33.80
2019-03-28T05:19:04.181Z,32.27
2019-03-28T05:23:02.853Z,33.63
2019-03-28T05:27:01.574Z,35.80
2019-03-28T05:31:00.259Z,31.07
2019-03-28T05:35:00.211Z,31.07
2019-03-28T05:38:59.192Z,35.83
2019-03-28T05:42:57.889Z,31.73
2019-03-28T05:46:56.559Z,35.37
2019-03-28T05:50:55.279Z,32.97
2019-03-28T05:54:53.977Z,39.97
2019-03-28T05:58:52.970Z,39.67
2019-03-28T06:02:51.984Z,33.90
2019-03-28T06:06:50.850Z,41.03
2019-03-28T06:10:49.694Z,55.40
2019-03-28T06:14:49.435Z,40.17
2019-03-28T06:18:48.309Z,36.60
2019-03-28T06:22:49.008Z,40.13
2019-03-28T06:26:49.972Z,34.20
2019-03-28T06:31:02.831Z,39.53
2019-03-28T06:35:01.494Z,33.80
2019-03-28T06:39:00.525Z,39.03
2019-03-28T06:42:59.563Z,32.73
2019-03-28T06:47:00.372Z,36.50
2019-03-28T06:51:01.837Z,40.70
2019-03-28T06:55:00.529Z,38.67
2019-03-28T06:58:59.304Z,38.87
2019-03-28T07:02:58.231Z,33.03
2019-03-28T07:06:56.898Z,43.27
2019-03-28T07:10:57.989Z,37.87
2019-03-28T07:14:59.355Z,32.27
2019-03-28T07:18:56.776Z,32.63
2019-03-28T07:22:55.707Z,32.63
2019-03-28T07:26:55.901Z,38.40
2019-03-28T07:30:56.782Z,39.50
2019-03-28T07:34:58.243Z,42.23
2019-03-28T07:38:57.007Z,45.70
2019-03-28T07:42:55.948Z,41.77
2019-03-28T07:46:54.610Z,36.47
2019-03-28T07:50:53.311Z,40.40
2019-03-28T07:54:58.176Z,31.40
2019-03-28T07:58:57.252Z,35.50
2019-03-28T08:02:58.367Z,33.77
2019-03-28T08:06:56.719Z,31.70
2019-03-28T08:10:58.361Z,31.87
2019-03-28T08:14:59.324Z,27.70
2019-03-28T08:18:57.810Z,27.40
2019-03-28T08:22:56.723Z,26.27
2019-03-28T08:26:55.732Z,32.63
2019-03-28T08:30:54.730Z,28.77
2019-03-28T08:34:53.736Z,28.03
2019-03-28T08:38:53.051Z,26.80
2019-03-28T08:42:51.638Z,25.17
2019-03-28T08:46:53.385Z,23.33
2019-03-28T08:50:52.024Z,24.20
2019-03-28T08:54:50.661Z,27.33
2019-03-28T08:58:51.476Z,21.07
2019-03-28T09:02:50.078Z,21.63
2019-03-28T09:06:51.644Z,24.83
2019-03-28T09:10:50.604Z,20.03
2019-03-28T09:14:49.210Z,24.17
2019-03-28T09:18:47.996Z,21.27
2019-03-28T09:22:49.428Z,27.10
2019-03-28T09:26:48.054Z,18.63
2019-03-28T09:30:49.194Z,23.27
2019-03-28T09:34:47.387Z,18.80
2019-03-28T09:38:46.393Z,21.00
2019-03-28T09:42:45.491Z,21.80
2019-03-28T09:50:57.468Z,22.40
2019-03-28T09:54:56.469Z,20.30
2019-03-28T09:58:55.472Z,16.90
2019-03-28T10:02:54.349Z,22.20
2019-03-28T10:06:53.272Z,12.67
2019-03-28T10:10:51.973Z,16.63
2019-03-28T10:14:51.155Z,10.57
2019-03-28T10:18:50.185Z,16.73
2019-03-28T10:22:49.090Z,19.93
2019-03-28T10:26:47.880Z,14.47
2019-03-28T10:30:47.112Z,22.57
2019-03-28T10:34:45.887Z,24.10
2019-03-28T10:38:44.888Z,19.27
2019-03-28T10:42:43.485Z,13.67
2019-03-28T10:46:42.152Z,23.13
2019-03-28T10:50:45.332Z,17.50
2019-03-28T10:54:41.642Z,21.10
2019-03-28T10:58:40.400Z,19.00
2019-03-28T11:02:39.192Z,18.47
2019-03-28T11:06:37.831Z,16.07
2019-03-28T11:10:36.590Z,16.87
2019-03-28T11:14:35.591Z,14.17
2019-03-28T11:18:34.620Z,19.77
2019-03-28T11:22:37.077Z,13.57
2019-03-28T11:26:35.778Z,18.00
2019-03-28T11:30:34.420Z,18.83
2019-03-28T11:34:36.624Z,16.37
2019-03-28T11:38:35.336Z,21.33
2019-03-28T11:42:36.627Z,22.00
2019-03-28T11:46:35.319Z,18.90
2019-03-28T11:50:34.322Z,24.43
2019-03-28T11:54:32.954Z,23.20
2019-03-28T11:58:31.947Z,25.30
2019-03-28T12:02:31.029Z,30.83
2019-03-28T12:06:29.725Z,26.97
2019-03-28T12:10:30.570Z,22.53
2019-03-28T12:14:28.933Z,23.87
2019-03-28T12:18:27.961Z,26.23
2019-03-28T12:22:26.595Z,27.20
2019-03-28T12:26:25.842Z,27.03
2019-03-28T12:30:24.666Z,24.60
2019-03-28T12:34:23.665Z,30.90
2019-03-28T12:38:22.679Z,30.43
2019-03-28T12:42:21.650Z,30.03
2019-03-28T12:46:20.313Z,23.87
2019-03-28T12:50:19.680Z,27.47
2019-03-28T12:54:18.351Z,26.93
2019-03-28T12:58:19.094Z,21.47
2019-03-28T13:02:29.930Z,28.50
2019-03-28T13:06:18.531Z,35.93
2019-03-28T13:10:17.773Z,30.60
2019-03-28T13:14:16.772Z,31.87
2019-03-28T13:18:15.463Z,32.00
2019-03-28T13:22:16.617Z,26.40
2019-03-28T13:26:15.357Z,30.10
2019-03-28T13:30:15.847Z,29.97
2019-03-28T13:34:14.422Z,27.20
2019-03-28T13:38:12.991Z,26.50
2019-03-28T13:42:12.601Z,23.90
2019-03-28T13:46:11.402Z,30.17
2019-03-28T13:50:11.948Z,26.63
2019-03-28T13:54:10.641Z,34.57
2019-03-28T13:58:09.483Z,26.10
2019-03-28T14:02:08.078Z,32.17
2019-03-28T14:06:07.132Z,29.83
2019-03-28T14:10:08.824Z,27.93
2019-03-28T14:14:07.439Z,32.17
2019-03-28T14:18:06.050Z,31.73
2019-03-28T14:22:04.667Z,31.27
2019-03-28T14:26:03.401Z,32.33
2019-03-28T14:30:01.989Z,35.67
2019-03-28T14:34:00.552Z,38.87
2019-03-28T14:37:59.180Z,33.20
2019-03-28T14:41:57.792Z,43.47
2019-03-28T14:45:56.383Z,40.93
2019-03-28T14:49:55.040Z,42.67
2019-03-28T14:53:53.582Z,40.23
2019-03-28T14:57:52.276Z,36.13
2019-03-28T15:01:50.868Z,40.57
2019-03-28T15:05:50.045Z,35.30
2019-03-28T15:09:51.417Z,38.53
2019-03-28T15:13:51.806Z,35.13
2019-03-28T15:17:50.701Z,38.67
2019-03-28T15:21:49.333Z,35.93
2019-03-28T15:25:47.966Z,32.30
2019-03-28T15:29:46.624Z,35.67
2019-03-28T15:33:45.216Z,36.23
2019-03-28T15:37:43.813Z,34.03
2019-03-28T15:41:42.391Z,45.17
2019-03-28T15:45:40.970Z,47.87
2019-03-28T15:49:41.747Z,39.47
2019-03-28T15:53:40.452Z,42.10
2019-03-28T15:57:40.842Z,45.33
2019-03-28T16:01:39.514Z,39.60
2019-03-28T16:05:40.028Z,42.10
2019-03-28T16:09:39.028Z,43.40
2019-03-28T16:13:40.458Z,42.33
2019-03-28T16:17:41.969Z,46.80
2019-03-28T16:21:40.667Z,43.00
2019-03-28T16:25:39.326Z,40.87
2019-03-28T16:29:38.626Z,48.93
2019-03-28T16:33:37.213Z,41.00
2019-03-28T16:37:36.333Z,42.87
2019-03-28T16:41:36.895Z,41.00
2019-03-28T16:45:35.506Z,40.23
2019-03-28T16:49:34.469Z,39.07
2019-03-28T16:53:33.114Z,42.53
2019-03-28T16:57:31.730Z,43.53
2019-03-28T17:01:30.423Z,43.13
2019-03-28T17:05:29.930Z,39.23
2019-03-28T17:09:30.736Z,39.47
2019-03-28T17:13:29.324Z,44.30
2019-03-28T17:17:27.918Z,44.40
2019-03-28T17:21:26.710Z,39.17
2019-03-28T17:25:25.319Z,41.73
2019-03-28T17:29:24.085Z,43.87
2019-03-28T17:33:25.036Z,39.67
2019-03-28T17:37:24.135Z,40.87
2019-03-28T17:41:22.801Z,39.27
2019-03-28T17:45:21.384Z,35.90
2019-03-28T17:49:20.094Z,38.53
2019-03-28T17:53:20.217Z,36.27
2019-03-28T17:57:18.878Z,38.30
2019-03-28T18:01:17.468Z,37.90
2019-03-28T18:05:16.141Z,39.23
2019-03-28T18:09:14.782Z,38.53
2019-03-28T18:13:13.398Z,35.10
2019-03-28T18:17:12.038Z,41.00
2019-03-28T18:21:10.649Z,36.10
2019-03-28T18:25:13.632Z,40.73
2019-03-28T18:29:12.314Z,37.93
2019-03-28T18:33:11.238Z,40.93
2019-03-28T18:37:09.986Z,44.47
2019-03-28T18:41:08.590Z,46.13
2019-03-28T18:45:08.908Z,41.07
2019-03-28T18:49:07.499Z,49.00
2019-03-28T18:53:06.137Z,40.50
2019-03-28T18:57:04.873Z,35.53
2019-03-28T19:01:05.357Z,39.97
2019-03-28T19:05:19.068Z,36.60
2019-03-28T19:09:07.714Z,37.47
2019-03-28T19:13:06.246Z,36.37
2019-03-28T19:17:07.831Z,36.37
2019-03-28T19:21:05.499Z,35.23
2019-03-28T19:25:08.897Z,36.67
2019-03-28T19:29:08.730Z,35.80
2019-03-28T19:33:07.466Z,43.00
2019-03-28T19:37:06.121Z,41.43
2019-03-28T19:41:05.126Z,42.20
2019-03-28T19:45:05.089Z,38.27
2019-03-28T19:49:03.740Z,34.80
2019-03-28T19:53:02.860Z,41.23
2019-03-28T19:57:01.549Z,41.10
2019-03-28T20:01:00.150Z,38.70
2019-03-28T20:04:58.729Z,46.30
2019-03-28T20:08:57.339Z,41.60
2019-03-28T20:12:55.956Z,35.03
2019-03-28T20:16:54.633Z,37.53
2019-03-28T20:20:55.685Z,51.23
2019-03-28T20:24:53.557Z,48.33
2019-03-28T20:28:52.435Z,50.63
2019-03-28T20:32:51.057Z,49.93
2019-03-28T20:36:52.694Z,52.37
2019-03-28T20:40:58.617Z,53.23
2019-03-28T20:44:57.549Z,52.80
2019-03-28T20:48:57.193Z,49.80
2019-03-28T20:52:55.933Z,44.20
2019-03-28T20:56:57.730Z,54.97
2019-03-28T21:00:55.392Z,51.90
2019-03-28T21:04:55.626Z,55.30
2019-03-28T21:08:54.314Z,60.30
2019-03-28T21:12:53.842Z,55.73
2019-03-28T21:16:53.980Z,53.00
2019-03-28T21:20:58.751Z,53.77
2019-03-28T21:24:57.345Z,56.73
2019-03-28T21:28:55.959Z,47.47
2019-03-28T21:32:55.944Z,44.13
2019-03-28T21:36:54.962Z,58.47
2019-03-28T21:41:02.318Z,57.07
2019-03-28T21:45:00.992Z,59.10
2019-03-28T21:48:59.655Z,59.27
2019-03-28T21:52:58.951Z,59.40
2019-03-28T21:56:57.715Z,67.47
2019-03-28T22:00:56.941Z,51.50
2019-03-28T22:04:55.522Z,62.20
2019-03-28T22:08:54.106Z,54.27
2019-03-28T22:12:55.777Z,49.67
2019-03-28T22:17:02.839Z,52.63
2019-03-28T22:21:01.833Z,54.50
2019-03-28T22:25:05.565Z,50.93
2019-03-28T22:29:08.038Z,52.13
2019-03-28T22:33:06.720Z,57.33
2019-03-28T22:37:05.300Z,59.27
2019-03-28T22:41:04.049Z,57.10
2019-03-28T22:45:02.892Z,57.50
2019-03-28T22:49:01.553Z,52.30
2019-03-28T22:53:03.260Z,53.67
2019-03-28T22:57:01.899Z,60.27
2019-03-28T23:01:01.376Z,56.80
2019-03-28T23:05:00.042Z,56.80
2019-03-28T23:08:58.927Z,53.77
2019-03-28T23:12:57.804Z,53.23
2019-03-28T23:16:56.416Z,57.67
2019-03-28T23:20:55.118Z,57.30
2019-03-28T23:24:55.678Z,59.50
2019-03-28T23:28:54.577Z,51.53
2019-03-28T23:32:53.169Z,52.63
2019-03-28T23:36:53.975Z,51.30
2019-03-28T23:40:52.619Z,54.00
2019-03-28T23:44:51.236Z,56.60
2019-03-28T23:48:49.832Z,57.17
2019-03-28T23:52:48.467Z,51.37
2019-03-28T23:56:47.069Z,63.87
